createdAt,value
2022-12-31T00:01:17.428Z,99841.25
2022-12-31T00:03:47.626Z,99838.66
2022-12-31T00:06:21.303Z,99840.78
2022-12-31T00:08:49.679Z,99850.34
2022-12-31T00:11:18.328Z,99852.13
2022-12-31T00:13:47.562Z,99840.56
2022-12-31T00:16:17.416Z,99848.53
2022-12-31T00:18:48.719Z,99851.06
2022-12-31T00:21:20.618Z,99843.81
2022-12-31T00:23:49.282Z,99842.06
2022-12-31T00:26:19.098Z,99848.22
2022-12-31T00:28:47.498Z,99846.72
2022-12-31T00:31:17.476Z,99849.59
2022-12-31T00:33:47.226Z,99857.63
2022-12-31T00:36:17.984Z,99849.69
2022-12-31T00:38:49.323Z,99861.34
2022-12-31T00:41:18.837Z,99864.09
2022-12-31T00:43:47.721Z,99862.25
2022-12-31T00:46:17.352Z,99857.78
2022-12-31T00:48:49.508Z,99857.78
2022-12-31T00:51:20.320Z,99849.84
2022-12-31T00:53:48.654Z,99868.28
2022-12-31T00:56:20.795Z,99865.50
2022-12-31T00:58:49.297Z,99872.47
2022-12-31T01:01:19.779Z,99871.28
2022-12-31T01:03:54.595Z,99874.47
2022-12-31T01:06:23.376Z,99887.84
2022-12-31T01:08:55.363Z,99880.88
2022-12-31T01:11:24.482Z,99886.88
2022-12-31T01:13:54.360Z,99890.19
2022-12-31T01:16:26.770Z,99895.25
2022-12-31T01:18:56.932Z,99899.41
2022-12-31T01:21:24.860Z,99905.66
2022-12-31T01:23:53.181Z,99912.41
2022-12-31T01:26:21.751Z,99914.31
2022-12-31T01:28:50.123Z,99924.88
2022-12-31T01:31:20.357Z,99935.41
2022-12-31T01:33:51.547Z,99938.59
2022-12-31T01:37:41.334Z,99944.47
2022-12-31T01:40:10.356Z,99953.78
2022-12-31T01:42:41.184Z,99966.47
2022-12-31T01:45:12.670Z,99957.69
2022-12-31T01:47:45.641Z,99957.50
2022-12-31T01:50:22.418Z,99964.66
2022-12-31T01:52:55.977Z,99955.91
2022-12-31T01:55:28.814Z,99951.56
2022-12-31T01:58:00.308Z,99953.94
2022-12-31T02:00:28.266Z,99958.06
2022-12-31T02:02:56.850Z,99968.66
2022-12-31T02:05:31.996Z,99961.44
2022-12-31T02:08:01.750Z,99956.69
2022-12-31T02:10:29.733Z,99954.88
2022-12-31T02:12:58.559Z,99956.69
2022-12-31T02:15:40.515Z,99969.34
2022-12-31T02:18:19.267Z,99961.59
2022-12-31T02:21:20.720Z,99953.56
2022-12-31T02:24:16.229Z,99956.38
2022-12-31T02:26:58.263Z,99947.44
2022-12-31T02:30:03.734Z,99951.44
2022-12-31T02:32:44.124Z,99946.00
2022-12-31T02:35:20.696Z,99950.84
2022-12-31T02:37:53.117Z,99948.31
2022-12-31T02:40:23.918Z,99950.91
2022-12-31T02:42:55.507Z,99952.09
2022-12-31T02:45:32.192Z,99946.81
2022-12-31T02:48:15.077Z,99956.06
2022-12-31T02:50:56.496Z,99955.19
2022-12-31T02:53:43.700Z,99973.78
2022-12-31T02:56:20.756Z,99963.69
2022-12-31T02:59:16.810Z,99954.63
2022-12-31T03:02:09.674Z,99961.47
2022-12-31T03:04:37.747Z,99962.66
2022-12-31T03:07:08.835Z,99974.50
2022-12-31T03:09:37.665Z,99955.66
2022-12-31T03:12:25.340Z,99960.84
2022-12-31T03:14:53.886Z,99961.47
2022-12-31T03:17:23.398Z,99954.88
2022-12-31T03:20:09.435Z,99960.13
2022-12-31T03:22:42.242Z,99961.78
2022-12-31T03:25:30.975Z,99956.25
2022-12-31T03:27:59.914Z,99960.69
2022-12-31T03:30:28.321Z,99955.06
2022-12-31T03:32:57.749Z,99957.69
2022-12-31T03:35:27.611Z,99963.94
2022-12-31T03:37:56.710Z,99950.19
2022-12-31T03:40:26.810Z,99960.22
2022-12-31T03:42:55.128Z,99958.56
2022-12-31T03:45:25.637Z,99962.09
2022-12-31T03:47:53.566Z,99970.78
2022-12-31T03:50:23.255Z,99964.59
2022-12-31T03:52:53.103Z,99955.56
2022-12-31T03:55:21.221Z,99962.47
2022-12-31T03:57:51.359Z,99970.19
2022-12-31T04:00:21.957Z,99962.69
2022-12-31T04:02:51.676Z,99972.28
2022-12-31T04:05:20.209Z,99980.59
2022-12-31T04:07:52.150Z,99981.13
2022-12-31T04:10:21.253Z,99983.63
2022-12-31T04:12:49.590Z,99981.19
2022-12-31T04:15:19.906Z,99964.59
2022-12-31T04:17:49.432Z,99960.75
2022-12-31T04:20:17.995Z,99974.28
2022-12-31T04:22:49.632Z,99985.25
2022-12-31T04:25:17.738Z,99985.47
2022-12-31T04:27:45.877Z,99981.31
2022-12-31T04:30:18.780Z,99992.38
2022-12-31T04:32:46.952Z,99990.38
2022-12-31T04:35:14.916Z,99980.25
2022-12-31T04:37:42.888Z,99986.38
2022-12-31T04:40:12.941Z,99990.97
2022-12-31T04:42:41.084Z,100004.59
2022-12-31T04:45:09.764Z,100006.41
2022-12-31T04:47:38.097Z,100007.22
2022-12-31T04:50:07.268Z,100011.88
2022-12-31T04:52:42.083Z,100009.97
2022-12-31T04:55:12.839Z,99988.66
2022-12-31T04:57:42.193Z,99995.16
2022-12-31T05:00:11.398Z,100000.78
2022-12-31T05:02:41.704Z,99999.03
2022-12-31T05:05:10.542Z,100001.63
2022-12-31T05:07:38.783Z,100021.41
2022-12-31T05:10:07.856Z,100017.94
2022-12-31T05:12:37.387Z,100034.59
2022-12-31T05:15:06.272Z,100026.34
2022-12-31T05:17:34.351Z,100015.59
2022-12-31T05:20:06.060Z,100010.59
2022-12-31T05:22:34.172Z,100004.31
2022-12-31T05:25:02.263Z,100025.13
2022-12-31T05:27:32.069Z,100028.69
2022-12-31T05:30:01.824Z,100019.84
2022-12-31T05:32:32.532Z,100019.66
2022-12-31T05:35:01.209Z,100022.88
2022-12-31T05:37:30.546Z,100042.97
2022-12-31T05:39:58.906Z,100049.13
2022-12-31T05:42:27.298Z,100048.25
2022-12-31T05:44:55.535Z,100042.94
2022-12-31T05:47:25.142Z,100038.22
2022-12-31T05:49:55.396Z,100042.72
2022-12-31T05:52:23.575Z,100043.00
2022-12-31T05:54:53.279Z,100041.78
2022-12-31T05:57:21.240Z,100043.69
2022-12-31T05:59:49.462Z,100047.75
2022-12-31T06:02:20.755Z,100041.00
2022-12-31T06:04:50.059Z,100032.44
2022-12-31T06:07:18.146Z,100054.53
2022-12-31T06:09:46.047Z,100051.06
2022-12-31T06:12:16.447Z,100052.31
2022-12-31T06:14:45.918Z,100052.88
2022-12-31T06:17:16.289Z,100071.13
2022-12-31T06:19:49.793Z,100072.41
2022-12-31T06:22:17.787Z,100064.22
2022-12-31T06:24:45.910Z,100079.53
2022-12-31T06:27:13.918Z,100075.09
2022-12-31T06:29:45.833Z,100070.94
2022-12-31T06:32:13.823Z,100070.00
2022-12-31T06:34:41.809Z,100060.09
2022-12-31T06:38:43.789Z,100064.63
2022-12-31T06:41:14.492Z,100070.16
2022-12-31T06:43:43.818Z,100081.91
2022-12-31T06:46:16.142Z,100089.53
2022-12-31T06:48:45.039Z,100090.38
2022-12-31T06:51:20.353Z,100090.91
2022-12-31T06:53:51.106Z,100101.06
2022-12-31T06:56:23.368Z,100098.59
2022-12-31T06:58:57.056Z,100105.66
2022-12-31T07:01:35.094Z,100104.69
2022-12-31T07:04:20.219Z,100089.09
2022-12-31T07:06:53.291Z,100094.91
2022-12-31T07:09:31.328Z,100097.84
2022-12-31T07:12:07.455Z,100107.22
2022-12-31T07:14:39.843Z,100110.22
2022-12-31T07:17:19.471Z,100108.66
2022-12-31T07:19:58.150Z,100124.44
2022-12-31T07:22:31.616Z,100122.22
2022-12-31T07:25:04.522Z,100113.78
2022-12-31T07:27:43.568Z,100115.06
2022-12-31T07:30:16.011Z,100112.69
2022-12-31T07:33:04.717Z,100118.84
2022-12-31T07:35:42.031Z,100120.25
2022-12-31T07:38:27.537Z,100129.53
2022-12-31T07:41:09.716Z,100134.66
2022-12-31T07:43:52.815Z,100128.44
2022-12-31T07:46:29.856Z,100137.44
2022-12-31T07:48:58.684Z,100135.63
2022-12-31T07:51:29.992Z,100130.06
2022-12-31T07:53:58.035Z,100122.13
2022-12-31T07:56:27.411Z,100146.72
2022-12-31T07:59:06.616Z,100140.41
2022-12-31T08:01:40.611Z,100143.88
2022-12-31T08:04:21.420Z,100149.53
2022-12-31T08:06:59.911Z,100142.31
2022-12-31T08:09:42.055Z,100141.69
2022-12-31T08:12:11.621Z,100143.88
2022-12-31T08:14:45.207Z,100169.81
2022-12-31T08:17:14.966Z,100173.38
2022-12-31T08:19:47.780Z,100164.31
2022-12-31T08:22:31.238Z,100170.91
2022-12-31T08:25:14.098Z,100169.19
2022-12-31T08:27:51.524Z,100185.94
2022-12-31T08:30:23.204Z,100174.47
2022-12-31T08:32:59.629Z,100195.72
2022-12-31T08:35:42.974Z,100194.16
2022-12-31T08:38:32.230Z,100183.41
2022-12-31T08:41:07.023Z,100177.34
2022-12-31T08:43:49.640Z,100168.75
2022-12-31T08:46:24.479Z,100185.59
2022-12-31T08:48:52.763Z,100156.72
2022-12-31T08:51:23.175Z,100186.13
2022-12-31T08:53:51.976Z,100186.03
2022-12-31T08:56:29.210Z,100180.88
2022-12-31T08:59:16.208Z,100184.97
2022-12-31T09:01:59.603Z,100189.72
2022-12-31T09:04:41.556Z,100174.66
2022-12-31T09:07:11.997Z,100179.75
2022-12-31T09:09:46.566Z,100181.34
2022-12-31T09:12:23.252Z,100171.47
2022-12-31T09:15:01.547Z,100201.53
2022-12-31T09:17:43.512Z,100201.03
2022-12-31T09:20:17.880Z,100218.91
2022-12-31T09:22:46.221Z,100206.38
2022-12-31T09:25:16.335Z,100213.69
2022-12-31T09:27:51.624Z,100212.47
2022-12-31T09:30:21.186Z,100235.06
2022-12-31T09:33:01.277Z,100226.34
2022-12-31T09:35:37.905Z,100227.47
2022-12-31T09:38:14.522Z,100211.50
2022-12-31T09:40:59.678Z,100216.44
2022-12-31T09:44:03.779Z,100230.50
2022-12-31T09:46:52.350Z,100216.91
2022-12-31T09:49:57.415Z,100226.72
2022-12-31T09:52:40.001Z,100218.81
2022-12-31T09:55:29.167Z,100221.13
2022-12-31T09:58:13.307Z,100213.69
2022-12-31T10:00:47.920Z,100221.31
2022-12-31T10:03:32.951Z,100205.19
2022-12-31T10:06:19.073Z,100212.94
2022-12-31T10:09:03.653Z,100222.56
2022-12-31T10:11:48.621Z,100212.59
2022-12-31T10:14:33.657Z,100215.09
2022-12-31T10:17:17.264Z,100221.38
2022-12-31T10:20:07.088Z,100219.81
2022-12-31T10:23:21.703Z,100224.38
2022-12-31T10:26:06.988Z,100211.03
2022-12-31T10:28:46.023Z,100222.09
2022-12-31T10:31:16.508Z,100224.91
2022-12-31T10:34:03.955Z,100215.94
2022-12-31T10:36:54.089Z,100231.00
2022-12-31T10:39:39.012Z,100226.81
2022-12-31T10:42:30.422Z,100233.09
2022-12-31T10:45:34.482Z,100226.25
2022-12-31T10:48:30.797Z,100220.75
2022-12-31T10:51:23.016Z,100215.59
2022-12-31T10:54:20.808Z,100226.94
2022-12-31T10:57:20.515Z,100223.81
2022-12-31T11:00:08.656Z,100215.03
2022-12-31T11:03:10.369Z,100229.47
2022-12-31T11:06:38.680Z,100214.31
2022-12-31T11:10:09.787Z,100231.13
2022-12-31T11:13:02.612Z,100243.69
2022-12-31T11:15:51.310Z,100235.31
2022-12-31T11:18:30.719Z,100230.03
2022-12-31T11:21:28.028Z,100237.28
2022-12-31T11:24:04.986Z,100240.75
2022-12-31T11:26:46.266Z,100230.25
2022-12-31T11:29:29.637Z,100239.72
2022-12-31T11:32:07.613Z,100232.97
2022-12-31T11:34:56.501Z,100224.22
2022-12-31T11:39:51.252Z,100212.63
2022-12-31T11:42:28.035Z,100211.78
2022-12-31T11:45:03.534Z,100207.56
2022-12-31T11:48:29.112Z,100199.81
2022-12-31T11:50:56.126Z,100193.94
2022-12-31T11:53:43.713Z,100195.56
2022-12-31T11:56:18.638Z,100190.72
2022-12-31T11:58:52.416Z,100190.03
2022-12-31T12:01:25.692Z,100195.75
2022-12-31T12:03:56.268Z,100197.91
2022-12-31T12:06:28.336Z,100199.25
2022-12-31T12:09:00.668Z,100187.50
2022-12-31T12:11:33.731Z,100197.28
2022-12-31T12:14:01.981Z,100190.41
2022-12-31T12:16:32.433Z,100199.88
2022-12-31T12:19:05.202Z,100189.44
2022-12-31T12:21:35.826Z,100188.59
2022-12-31T12:24:06.900Z,100189.81
2022-12-31T12:26:39.825Z,100190.94
2022-12-31T12:29:31.084Z,100193.00
2022-12-31T12:32:01.459Z,100197.09
2022-12-31T12:34:31.999Z,100188.53
2022-12-31T12:37:00.191Z,100181.44
2022-12-31T12:39:30.942Z,100181.97
2022-12-31T12:42:06.263Z,100183.78
2022-12-31T12:44:35.720Z,100182.38
2022-12-31T12:47:06.227Z,100178.38
2022-12-31T12:49:40.873Z,100177.19
2022-12-31T12:52:35.025Z,100173.75
2022-12-31T12:55:18.365Z,100177.19
2022-12-31T12:57:56.021Z,100177.19
2022-12-31T13:00:29.665Z,100173.84
2022-12-31T13:03:31.040Z,100171.69
2022-12-31T13:06:27.225Z,100172.09
2022-12-31T13:09:12.789Z,100174.91
2022-12-31T13:11:52.237Z,100163.47
2022-12-31T13:14:32.806Z,100164.00
2022-12-31T13:17:07.074Z,100160.66
2022-12-31T13:19:42.591Z,100158.59
2022-12-31T13:22:21.364Z,100159.88
2022-12-31T13:25:00.092Z,100152.56
2022-12-31T13:27:34.862Z,100151.78
2022-12-31T13:30:14.143Z,100162.91
2022-12-31T13:32:46.353Z,100166.38
2022-12-31T13:35:23.896Z,100169.81
2022-12-31T13:38:05.022Z,100164.28
2022-12-31T13:40:48.812Z,100151.28
2022-12-31T13:43:20.944Z,100162.22
2022-12-31T13:46:01.608Z,100155.94
2022-12-31T13:48:40.385Z,100147.69
2022-12-31T13:51:15.051Z,100154.63
2022-12-31T13:53:50.182Z,100158.41
2022-12-31T13:56:26.557Z,100155.47
2022-12-31T13:59:00.992Z,100148.69
2022-12-31T14:01:38.067Z,100134.34
2022-12-31T14:04:11.275Z,100156.81
2022-12-31T14:06:46.656Z,100153.38
2022-12-31T14:09:20.919Z,100150.47
2022-12-31T14:12:18.677Z,100154.25
2022-12-31T14:14:54.476Z,100150.22
2022-12-31T14:17:32.928Z,100153.13
2022-12-31T14:20:12.940Z,100159.09
2022-12-31T14:22:45.603Z,100147.41
2022-12-31T14:25:22.426Z,100140.28
2022-12-31T14:27:53.574Z,100124.28
2022-12-31T14:30:23.669Z,100152.03
2022-12-31T14:33:14.852Z,100150.38
2022-12-31T14:35:56.825Z,100160.72
2022-12-31T14:38:33.430Z,100157.78
2022-12-31T14:41:13.708Z,100152.00
2022-12-31T14:43:51.721Z,100159.22
2022-12-31T14:46:29.797Z,100166.28
2022-12-31T14:49:16.478Z,100164.97
2022-12-31T14:51:44.783Z,100161.41
2022-12-31T14:54:29.014Z,100159.56
2022-12-31T14:56:57.349Z,100158.66
2022-12-31T14:59:28.851Z,100168.16
2022-12-31T15:01:58.152Z,100159.59
2022-12-31T15:04:34.721Z,100164.56
2022-12-31T15:07:12.003Z,100159.44
2022-12-31T15:10:00.478Z,100163.28
2022-12-31T15:13:03.177Z,100169.78
2022-12-31T15:15:54.791Z,100165.50
2022-12-31T15:18:35.916Z,100178.50
2022-12-31T15:21:36.908Z,100185.00
2022-12-31T15:24:18.729Z,100182.59
2022-12-31T15:26:53.557Z,100187.34
2022-12-31T15:29:28.828Z,100179.59
2022-12-31T15:32:02.494Z,100186.91
2022-12-31T15:34:33.706Z,100176.50
2022-12-31T15:37:04.732Z,100183.84
2022-12-31T15:39:44.349Z,100187.84
2022-12-31T15:42:49.212Z,100186.44
2022-12-31T15:45:25.307Z,100188.53
2022-12-31T15:47:56.061Z,100190.94
2022-12-31T15:50:26.453Z,100197.22
2022-12-31T15:52:59.009Z,100208.09
2022-12-31T15:55:31.076Z,100209.75
2022-12-31T15:58:04.986Z,100217.31
2022-12-31T16:00:47.066Z,100208.31
2022-12-31T16:03:22.927Z,100211.69
2022-12-31T16:05:57.752Z,100204.22
2022-12-31T16:08:31.170Z,100206.59
2022-12-31T16:10:59.923Z,100210.84
2022-12-31T16:13:30.293Z,100212.13
2022-12-31T16:16:03.946Z,100221.91
2022-12-31T16:18:39.643Z,100224.13
2022-12-31T16:21:23.241Z,100220.88
2022-12-31T16:23:54.506Z,100223.75
2022-12-31T16:26:31.102Z,100223.66
2022-12-31T16:29:01.209Z,100231.09
2022-12-31T16:31:32.392Z,100234.81
2022-12-31T16:34:08.346Z,100236.94
2022-12-31T16:36:36.471Z,100238.28
2022-12-31T16:40:42.831Z,100236.25
2022-12-31T16:43:25.808Z,100237.84
2022-12-31T16:45:56.031Z,100224.41
2022-12-31T16:48:24.379Z,100223.38
2022-12-31T16:50:55.474Z,100227.34
2022-12-31T16:53:29.843Z,100224.22
2022-12-31T16:56:03.782Z,100208.25
2022-12-31T16:58:34.335Z,100212.81
2022-12-31T17:01:14.670Z,100204.91
2022-12-31T17:03:49.088Z,100214.28
2022-12-31T17:06:21.425Z,100204.81
2022-12-31T17:09:04.586Z,100207.88
2022-12-31T17:11:39.431Z,100210.72
2022-12-31T17:14:14.577Z,100215.94
2022-12-31T17:17:02.062Z,100211.16
2022-12-31T17:19:38.796Z,100208.22
2022-12-31T17:22:14.136Z,100209.16
2022-12-31T17:24:42.633Z,100217.81
2022-12-31T17:27:12.270Z,100220.84
2022-12-31T17:29:40.283Z,100219.28
2022-12-31T17:32:29.125Z,100229.03
2022-12-31T17:34:57.026Z,100219.03
2022-12-31T17:37:28.344Z,100236.91
2022-12-31T17:40:17.021Z,100233.94
2022-12-31T17:42:48.128Z,100232.75
2022-12-31T17:45:22.713Z,100237.41
2022-12-31T17:47:53.927Z,100232.28
2022-12-31T17:50:24.800Z,100243.03
2022-12-31T17:52:56.920Z,100229.19
2022-12-31T17:55:25.427Z,100234.88
2022-12-31T17:57:57.776Z,100246.78
2022-12-31T18:00:27.659Z,100238.38
2022-12-31T18:02:59.018Z,100237.03
2022-12-31T18:05:29.913Z,100243.41
2022-12-31T18:08:00.499Z,100243.91
2022-12-31T18:10:30.878Z,100240.00
2022-12-31T18:13:01.724Z,100243.88
2022-12-31T18:15:29.648Z,100253.91
2022-12-31T18:18:03.148Z,100248.72
2022-12-31T18:20:31.060Z,100240.19
2022-12-31T18:22:59.325Z,100245.88
2022-12-31T18:25:27.317Z,100256.09
2022-12-31T18:27:55.547Z,100249.94
2022-12-31T18:30:25.627Z,100255.63
2022-12-31T18:32:53.716Z,100241.31
2022-12-31T18:38:14.998Z,100254.38
2022-12-31T18:40:46.786Z,100260.22
2022-12-31T18:43:18.739Z,100262.34
2022-12-31T18:45:49.689Z,100275.25
2022-12-31T18:48:18.101Z,100280.81
2022-12-31T18:50:47.425Z,100288.97
2022-12-31T18:53:20.361Z,100289.03
2022-12-31T18:55:55.665Z,100282.41
2022-12-31T18:58:24.807Z,100287.53
2022-12-31T19:00:56.468Z,100290.00
2022-12-31T19:03:27.494Z,100287.53
2022-12-31T19:05:55.542Z,100295.28
2022-12-31T19:08:24.980Z,100287.47
2022-12-31T19:10:53.874Z,100283.19
2022-12-31T19:13:23.265Z,100289.50
2022-12-31T19:15:52.841Z,100278.63
2022-12-31T19:18:22.228Z,100283.03
2022-12-31T19:20:52.256Z,100276.19
2022-12-31T19:23:22.547Z,100259.44
2022-12-31T19:25:53.229Z,100280.03
2022-12-31T19:28:24.835Z,100260.78
2022-12-31T19:30:53.573Z,100267.19
2022-12-31T19:33:23.059Z,100274.59
2022-12-31T19:35:51.114Z,100275.38
2022-12-31T19:38:21.918Z,100277.06
2022-12-31T19:40:50.628Z,100284.78
2022-12-31T19:43:20.730Z,100270.19
2022-12-31T19:45:50.454Z,100286.22
2022-12-31T19:48:20.612Z,100283.34
2022-12-31T19:50:51.422Z,100283.31
2022-12-31T19:53:21.703Z,100279.41
2022-12-31T19:55:50.805Z,100276.16
2022-12-31T19:58:20.557Z,100282.97
2022-12-31T20:00:56.842Z,100276.22
2022-12-31T20:03:29.416Z,100289.22
2022-12-31T20:06:07.796Z,100295.88
2022-12-31T20:08:36.666Z,100296.69
2022-12-31T20:11:13.600Z,100288.31
2022-12-31T20:13:42.774Z,100297.84
2022-12-31T20:16:13.394Z,100298.41
2022-12-31T20:18:43.403Z,100298.47
2022-12-31T20:21:14.575Z,100294.53
2022-12-31T20:23:42.558Z,100289.75
2022-12-31T20:26:11.615Z,100289.41
2022-12-31T20:28:40.095Z,100296.69
2022-12-31T20:31:09.195Z,100296.34
2022-12-31T20:33:40.111Z,100297.50
2022-12-31T20:36:15.074Z,100301.97
2022-12-31T20:38:45.999Z,100302.16
2022-12-31T20:41:18.179Z,100303.94
2022-12-31T20:43:47.099Z,100306.72
2022-12-31T20:46:20.246Z,100313.59
2022-12-31T20:48:50.422Z,100312.91
2022-12-31T20:51:21.839Z,100306.22
2022-12-31T20:53:52.014Z,100310.00
2022-12-31T20:56:20.108Z,100309.13
2022-12-31T20:58:48.740Z,100301.75
2022-12-31T21:01:17.817Z,100303.19
2022-12-31T21:04:07.116Z,100296.69
2022-12-31T21:06:37.566Z,100308.31
2022-12-31T21:09:08.772Z,100321.03
2022-12-31T21:11:54.958Z,100321.19
2022-12-31T21:14:23.144Z,100317.63
2022-12-31T21:16:51.205Z,100313.72
2022-12-31T21:19:19.323Z,100326.75
2022-12-31T21:21:49.790Z,100319.41
2022-12-31T21:24:23.845Z,100314.19
2022-12-31T21:26:52.589Z,100316.97
2022-12-31T21:29:20.503Z,100317.84
2022-12-31T21:31:49.055Z,100326.66
2022-12-31T21:34:19.293Z,100321.88
2022-12-31T21:36:48.786Z,100325.25
2022-12-31T21:41:53.129Z,100325.34
2022-12-31T21:44:22.465Z,100336.31
2022-12-31T21:47:32.859Z,100329.75
2022-12-31T21:49:38.749Z,100336.03
2022-12-31T21:52:24.009Z,100343.69
2022-12-31T21:55:09.604Z,100344.13
2022-12-31T21:58:07.198Z,100350.69
2022-12-31T22:00:44.476Z,100344.00
2022-12-31T22:03:27.829Z,100345.22
2022-12-31T22:05:59.653Z,100356.00
2022-12-31T22:08:28.490Z,100349.88
2022-12-31T22:10:56.760Z,100359.53
2022-12-31T22:13:26.385Z,100364.09
2022-12-31T22:16:01.835Z,100361.44
2022-12-31T22:18:34.527Z,100357.47
2022-12-31T22:21:04.038Z,100365.66
2022-12-31T22:23:33.231Z,100350.59
2022-12-31T22:26:01.524Z,100362.19
2022-12-31T22:28:38.989Z,100363.47
2022-12-31T22:31:08.276Z,100369.00
2022-12-31T22:33:38.845Z,100365.00
2022-12-31T22:36:13.649Z,100374.22
2022-12-31T22:38:42.388Z,100384.94
2022-12-31T22:41:14.654Z,100377.75
2022-12-31T22:43:46.668Z,100382.16
2022-12-31T22:46:16.803Z,100386.44
2022-12-31T22:48:47.459Z,100388.75
2022-12-31T22:51:17.045Z,100386.41
2022-12-31T22:53:45.506Z,100393.41
2022-12-31T22:56:16.100Z,100392.06
2022-12-31T22:58:48.242Z,100388.41
2022-12-31T23:01:18.961Z,100396.25
2022-12-31T23:03:47.448Z,100401.69
2022-12-31T23:06:16.166Z,100399.50
2022-12-31T23:09:04.671Z,100403.06
2022-12-31T23:11:33.357Z,100395.28
2022-12-31T23:14:23.594Z,100405.56
2022-12-31T23:17:31.542Z,100407.50
2022-12-31T23:20:18.450Z,100395.75
2022-12-31T23:23:08.808Z,100401.41
2022-12-31T23:25:42.139Z,100399.59
2022-12-31T23:28:13.912Z,100399.81
2022-12-31T23:30:44.213Z,100387.13
2022-12-31T23:33:16.349Z,100384.91
2022-12-31T23:35:44.829Z,100395.47
2022-12-31T23:38:13.430Z,100387.44
2022-12-31T23:40:41.788Z,100386.88
2022-12-31T23:43:19.240Z,100400.03
2022-12-31T23:45:52.759Z,100398.44
2022-12-31T23:48:21.176Z,100402.28
2022-12-31T23:50:53.864Z,100393.81
2022-12-31T23:53:25.275Z,100403.50
2022-12-31T23:55:54.008Z,100403.56
2022-12-31T23:58:23.092Z,100397.03
